Latest Coastal Weather Observations for Lucinda

IDQ60701

Issued at 9:52 am EST Wednesday 16 October 2019 (issued every 10 minutes, with the page automatically refreshed every 10 minutes)

About coastal observations | Map of coastal stations | Coastal observations for QLD | Marine services | Other Formats
Station Details ID: 032141 Name: LUCINDA POINT Lat: -18.52 Lon: 146.39 Height: 10.0 m
Data from the previous 72 hours. | See also: Recent months at Lucinda
Date/Time
EST
Wind Sea
Height
m
Swell Vis
km
Cloud Weather Temp
°C
Press
hPa
Rain since
9am
mm
Dir  Spd
kts
Gust
kts
Height
m
Period
s
Dir
16/09:30am N 15 18 - - - - - - - 24.7 1015.0 0.0
16/09:00am NNW 15 19 - - - - - - - 24.7 1014.9 0.0
16/08:30am NNW 12 15 - - - - - - - 24.7 1015.1 0.0
16/08:00am W 5 7 - - - - - - - 24.1 1015.2 0.0
16/07:30am W 8 9 - - - - - - - 23.6 1014.8 0.0
16/07:00am NW 9 12 - - - - - - - 24.3 1014.6 0.0
16/06:30am NNW 11 14 - - - - - - - 24.0 1014.3 0.0
16/06:00am NNW 11 15 - - - - - - - 23.6 1014.1 0.0
16/05:30am NNW 13 16 - - - - - - - 23.8 1013.7 0.0
16/05:00am NNW 14 17 - - - - - - - 23.9 1012.9 0.0
16/04:30am NNW 12 15 - - - - - - - 23.8 1012.5 0.0
16/04:00am NW 4 6 - - - - - - - 23.3 1012.4 0.0
16/03:30am W 4 6 - - - - - - - 23.3 1012.1 0.0
16/03:00am W 6 8 - - - - - - - 23.6 1011.8 0.0
16/02:30am WNW 9 13 - - - - - - - 23.8 1011.8 0.0
16/02:00am NNW 14 17 - - - - - - - 24.1 1011.7 0.0
16/01:30am NNW 12 15 - - - - - - - 24.1 1012.0 0.0
16/01:00am NNW 13 15 - - - - - - - 24.1 1012.3 0.0
16/12:30am NNW 10 12 - - - - - - - 24.2 1012.7 0.0
16/12:00am NW 11 15 - - - - - - - 24.2 1013.0 0.0
 
Date/Time
EST
Wind Sea
Height
m
Swell Vis
km
Cloud Weather Temp
°C
Press
hPa
Rain since
9am
mm
Dir  Spd
kts
Gust
kts
Height
m
Period
s
Dir
15/11:30pm NNW 12 15 - - - - - - - 24.5 1013.2 0.0
15/11:00pm N 11 14 - - - - - - - 24.4 1013.2 0.0
15/10:30pm NNW 12 15 - - - - - - - 24.3 1013.2 0.0
15/10:00pm NNW 14 17 - - - - - - - 24.4 1012.9 0.0
15/09:30pm NNW 14 18 - - - - - - - 24.5 1012.7 0.0
15/09:00pm NNW 16 20 - - - - - - - 24.5 1012.4 0.0
15/08:30pm NNW 15 18 - - - - - - - 24.8 1012.2 0.0
15/08:00pm NNW 15 19 - - - - - - - 24.7 1011.9 0.0
15/07:30pm N 16 19 - - - - - - - 24.8 1011.7 0.0
15/07:00pm N 18 22 - - - - - - - 24.5 1011.1 0.0
15/06:30pm N 18 22 - - - - - - - 24.5 1011.0 0.0
15/06:00pm N 21 25 - - - - - - - 24.8 1010.9 0.0
15/05:30pm N 23 26 - - - - - - - 24.9 1010.7 0.0
15/05:00pm N 21 24 - - - - - - - 25.1 1010.8 0.0
15/04:30pm N 22 26 - - - - - - - 25.1 1010.4 0.0
15/04:00pm N 17 21 - - - - - - - 25.3 1010.9 0.0
15/03:30pm N 19 24 - - - - - - - 25.2 1010.8 0.0
15/03:00pm N 25 29 - - - - - - - 25.2 1010.4 0.0
15/02:30pm N 25 30 - - - - - - - 24.9 1010.8 0.0
15/02:00pm N 21 24 - - - - - - - 25.5 1011.9 0.0
15/01:30pm N 18 22 - - - - - - - 25.1 1012.6 0.0
15/01:00pm N 19 21 - - - - - - - 25.1 1013.4 0.0
15/12:30pm N 19 22 - - - - - - - 24.8 1013.8 0.0
15/12:00pm N 18 22 - - - - - - - 24.9 1014.2 0.0
15/11:30am N 17 22 - - - - - - - 25.0 1014.6 0.0
15/11:00am N 16 19 - - - - - - - 24.9 1014.9 0.0
15/10:30am N 14 17 - - - - - - - 24.8 1015.4 0.0
15/10:00am NNW 14 17 - - - - - - - 24.8 1015.7 0.0
15/09:30am NNW 14 17 - - - - - - - 24.9 1015.9 0.0
15/09:00am NNW 13 16 - - - - - - - 24.9 1016.2 0.0
15/08:30am NNW 14 17 - - - - - - - 24.9 1016.2 0.0
15/08:00am W 6 8 - - - - - - - 24.0 1016.3 0.0
15/07:30am WSW 7 11 - - - - - - - 22.7 1016.1 0.0
15/07:00am WSW 7 9 - - - - - - - 22.2 1015.8 0.0
15/06:30am WSW 8 9 - - - - - - - 22.3 1015.4 0.0
15/06:00am W 7 9 - - - - - - - 22.5 1015.1 0.0
15/05:30am NNW 11 16 - - - - - - - 24.0 1014.8 0.0
15/05:00am NNW 13 17 - - - - - - - 24.1 1014.6 0.0
15/04:30am NNW 14 17 - - - - - - - 24.1 1014.3 0.0
15/04:00am N 14 18 - - - - - - - 24.1 1014.2 0.0
15/03:30am NNW 14 19 - - - - - - - 24.1 1014.2 0.0
15/03:00am NNW 14 18 - - - - - - - 24.0 1014.2 0.0
15/02:30am NNW 14 18 - - - - - - - 24.0 1014.4 0.0
15/02:00am N 13 17 - - - - - - - 24.1 1014.9 0.0
15/01:30am N 13 15 - - - - - - - 24.1 1015.2 0.0
15/01:00am N 12 15 - - - - - - - 24.2 1015.5 0.0
15/12:30am NNW 12 15 - - - - - - - 24.3 1015.8 0.0
15/12:00am N 11 15 - - - - - - - 24.4 1016.2 0.0
 
Date/Time
EST
Wind Sea
Height
m
Swell Vis
km
Cloud Weather Temp
°C
Press
hPa
Rain since
9am
mm
Dir  Spd
kts
Gust
kts
Height
m
Period
s
Dir
14/11:30pm NNW 11 14 - - - - - - - 24.3 1016.2 0.0
14/11:00pm N 12 15 - - - - - - - 24.4 1016.2 0.0
14/10:30pm N 13 16 - - - - - - - 24.5 1016.1 0.0
14/10:00pm N 12 15 - - - - - - - 24.6 1016.2 0.0
14/09:30pm N 12 15 - - - - - - - 24.4 1016.1 0.0
14/09:00pm N 15 17 - - - - - - - 24.5 1016.0 0.0
14/08:30pm N 16 19 - - - - - - - 24.5 1015.6 0.0
14/08:00pm N 15 18 - - - - - - - 24.5 1015.4 0.0
14/07:30pm N 16 19 - - - - - - - 24.6 1015.1 0.0
14/07:00pm N 15 17 - - - - - - - 24.6 1014.9 0.0
14/06:30pm N 15 17 - - - - - - - 24.7 1014.7 0.0
14/06:00pm N 16 19 - - - - - - - 25.1 1014.3 0.0
14/05:30pm NNE 16 18 - - - - - - - 25.2 1014.2 0.0
14/05:00pm NNE 17 20 - - - - - - - 25.6 1013.7 0.0
14/04:30pm N 18 20 - - - - - - - 25.7 1013.6 0.0
14/04:00pm NNE 15 18 - - - - - - - 25.4 1013.8 0.0
14/03:30pm N 15 18 - - - - - - - 25.6 1014.0 0.0
14/03:00pm NNE 14 17 - - - - - - - 25.7 1014.3 0.0
14/02:30pm N 14 17 - - - - - - - 25.8 1014.7 0.0
14/02:00pm NNE 13 16 - - - - - - - 25.5 1015.0 0.0
14/01:30pm NNE 12 15 - - - - - - - 25.9 1015.4 0.0
14/01:00pm N 11 14 - - - - - - - 26.1 1015.9 0.0
14/12:30pm N 11 14 - - - - - - - 26.2 1016.3 0.0
14/12:00pm NNE 12 14 - - - - - - - 26.0 1016.7 0.0
14/11:30am N 11 14 - - - - - - - 26.3 1017.1 0.0
14/11:00am NNE 9 11 - - - - - - - 26.3 1017.2 0.0
14/10:30am N 9 11 - - - - - - - 26.0 1017.4 0.0
14/10:00am N 6 8 - - - - - - - 26.2 1017.4 0.0
14/09:30am ESE 4 5 - - - - - - - 26.6 1017.6 0.0
14/09:00am ESE 2 4 - - - - - - - 26.0 1017.5 0.0
14/08:30am S 3 5 - - - - - - - 24.5 1017.4 0.0
14/08:00am SSW 4 5 - - - - - - - 23.2 1017.1 0.0
14/07:30am SW 5 6 - - - - - - - 22.5 1016.8 0.0
14/07:00am WSW 5 7 - - - - - - - 22.6 1016.4 0.0
14/06:30am W 4 8 - - - - - - - 22.9 1016.1 0.0
14/06:00am WNW 3 5 - - - - - - - 22.7 1015.8 0.0
14/05:30am SW 7 8 - - - - - - - 22.6 1015.7 0.0
14/05:00am SW 8 10 - - - - - - - 22.7 1015.4 0.0
14/04:30am NNW 6 8 - - - - - - - 24.7 1015.0 0.0
14/04:00am NNW 10 12 - - - - - - - 24.6 1014.7 0.0
14/03:30am NNW 11 15 - - - - - - - 24.5 1014.4 0.0
14/03:00am NNW 12 16 - - - - - - - 24.8 1014.5 0.0
14/02:30am NNW 11 14 - - - - - - - 24.8 1014.8 0.0
14/02:00am N 13 16 - - - - - - - 24.7 1015.1 0.0
14/01:30am N 12 15 - - - - - - - 25.1 1015.3 0.0
14/01:00am NNW 11 14 - - - - - - - 24.9 1015.5 0.0
14/12:30am NNW 13 15 - - - - - - - 25.0 1015.6 0.0
14/12:00am NNW 15 19 - - - - - - - 25.0 1015.5 0.0
 
Date/Time
EST
Wind Sea
Height
m
Swell Vis
km
Cloud Weather Temp
°C
Press
hPa
Rain since
9am
mm
Dir  Spd
kts
Gust
kts
Height
m
Period
s
Dir
13/11:30pm NNW 13 17 - - - - - - - 24.8 1015.6 0.0
13/11:00pm NNW 13 17 - - - - - - - 24.8 1015.6 0.0
13/10:30pm NNW 13 16 - - - - - - - 24.8 1015.6 0.0
13/10:00pm NNW 15 18 - - - - - - - 24.8 1015.4 0.0
13/09:30pm NNW 14 18 - - - - - - - 24.9 1015.1 0.0
13/09:00pm NNW 15 17 - - - - - - - 25.2 1014.8 0.0
13/08:30pm NNW 13 16 - - - - - - - 25.2 1014.2 0.0
13/08:00pm N 14 17 - - - - - - - 25.1 1014.0 0.0
13/07:30pm N 14 16 - - - - - - - 25.2 1013.8 0.0
13/07:00pm N 13 15 - - - - - - - 25.3 1013.4 0.0
13/06:30pm N 14 16 - - - - - - - 25.4 1013.2 0.0
13/06:00pm NNE 14 16 - - - - - - - 25.5 1012.8 0.0
13/05:30pm NE 17 18 - - - - - - - 25.4 1012.4 0.0
13/05:00pm NE 17 19 - - - - - - - 26.2 1012.1 0.0
13/04:30pm NE 16 17 - - - - - - - 25.5 1012.1 0.0
13/04:00pm NE 15 16 - - - - - - - 25.8 1012.2 0.0
13/03:30pm NE 13 15 - - - - - - - 25.9 1012.4 0.0
13/03:00pm NE 13 15 - - - - - - - 25.7 1012.6 0.0
13/02:30pm NE 13 16 - - - - - - - 25.9 1012.8 0.0
13/02:00pm NNE 14 16 - - - - - - - 25.5 1013.2 0.0
13/01:30pm NNE 11 14 - - - - - - - 25.9 1013.7 0.0
13/01:00pm NE 11 13 - - - - - - - 25.1 1014.3 0.0
13/12:30pm ENE 9 11 - - - - - - - 25.7 1014.8 0.0
13/12:00pm ENE 7 9 - - - - - - - 26.1 1015.4 0.0
13/11:30am ESE 7 9 - - - - - - - 26.6 1015.6 0.0
13/11:00am E 4 6 - - - - - - - 26.1 1015.8 0.0
13/10:30am ESE 3 5 - - - - - - - 26.6 1016.0 0.0
13/10:00am ESE 3 5 - - - - - - - 26.6 1016.2 0.0

Other formats

Comma delimited format used in spreadsheet applications
http://www.bom.gov.au/fwo/IDQ60701/IDQ60701.94295.axf

JavaScript Object Notation format (JSON) in row-major order
http://www.bom.gov.au/fwo/IDQ60701/IDQ60701.94295.json

Data quality

Most of these data are generated automatically and are frequently updated. Quality checks on data are not normally performed. It is possible for incorrect values to appear. Refer to information at About Latest Weather Observations and please check the disclaimer before using these data.